sensor_id;sensor_type;location;lat;lon;timestamp;P1;durP1;ratioP1;P2;durP2;ratioP2
18360;SDS011;9308;48.550;9.108;2023-02-05T00:00:01;8.73;;;5.43;;
18360;SDS011;9308;48.550;9.108;2023-02-05T00:02:29;9.30;;;6.00;;
18360;SDS011;9308;48.550;9.108;2023-02-05T00:04:54;10.50;;;5.23;;
18360;SDS011;9308;48.550;9.108;2023-02-05T00:07:20;6.57;;;4.90;;
18360;SDS011;9308;48.550;9.108;2023-02-05T00:09:45;9.50;;;6.90;;
18360;SDS011;9308;48.550;9.108;2023-02-05T00:12:11;15.70;;;8.07;;
18360;SDS011;9308;48.550;9.108;2023-02-05T00:14:36;8.67;;;7.87;;
18360;SDS011;9308;48.550;9.108;2023-02-05T00:17:02;8.80;;;6.77;;
18360;SDS011;9308;48.550;9.108;2023-02-05T00:19:27;8.93;;;6.10;;
18360;SDS011;9308;48.550;9.108;2023-02-05T00:21:53;10.53;;;5.00;;
18360;SDS011;9308;48.550;9.108;2023-02-05T00:24:18;9.83;;;5.67;;
18360;SDS011;9308;48.550;9.108;2023-02-05T00:26:43;6.17;;;5.23;;
18360;SDS011;9308;48.550;9.108;2023-02-05T00:29:09;7.70;;;5.40;;
18360;SDS011;9308;48.550;9.108;2023-02-05T00:31:34;11.50;;;6.10;;
18360;SDS011;9308;48.550;9.108;2023-02-05T00:34:00;13.30;;;6.57;;
18360;SDS011;9308;48.550;9.108;2023-02-05T00:36:25;11.30;;;5.20;;
18360;SDS011;9308;48.550;9.108;2023-02-05T00:38:51;12.07;;;5.80;;
18360;SDS011;9308;48.550;9.108;2023-02-05T00:41:20;9.90;;;5.47;;
18360;SDS011;9308;48.550;9.108;2023-02-05T00:43:45;8.20;;;6.27;;
18360;SDS011;9308;48.550;9.108;2023-02-05T00:46:11;7.23;;;5.60;;
18360;SDS011;9308;48.550;9.108;2023-02-05T00:48:37;11.60;;;7.73;;
18360;SDS011;9308;48.550;9.108;2023-02-05T00:51:03;12.80;;;7.90;;
18360;SDS011;9308;48.550;9.108;2023-02-05T00:53:29;8.47;;;6.90;;
18360;SDS011;9308;48.550;9.108;2023-02-05T00:55:55;11.77;;;7.17;;
18360;SDS011;9308;48.550;9.108;2023-02-05T00:58:20;12.97;;;7.83;;
18360;SDS011;9308;48.550;9.108;2023-02-05T01:00:46;10.20;;;7.27;;
18360;SDS011;9308;48.550;9.108;2023-02-05T01:03:13;10.80;;;8.20;;
18360;SDS011;9308;48.550;9.108;2023-02-05T01:05:38;14.27;;;9.03;;
18360;SDS011;9308;48.550;9.108;2023-02-05T01:08:06;13.10;;;8.83;;
18360;SDS011;9308;48.550;9.108;2023-02-05T01:10:32;10.30;;;8.57;;
18360;SDS011;9308;48.550;9.108;2023-02-05T01:12:58;12.30;;;8.67;;
18360;SDS011;9308;48.550;9.108;2023-02-05T01:15:23;16.03;;;10.57;;
18360;SDS011;9308;48.550;9.108;2023-02-05T01:17:49;10.33;;;9.10;;
18360;SDS011;9308;48.550;9.108;2023-02-05T01:20:14;14.70;;;10.63;;
18360;SDS011;9308;48.550;9.108;2023-02-05T01:22:41;14.03;;;11.70;;
18360;SDS011;9308;48.550;9.108;2023-02-05T01:25:07;13.47;;;11.73;;
18360;SDS011;9308;48.550;9.108;2023-02-05T01:27:33;14.10;;;12.80;;
18360;SDS011;9308;48.550;9.108;2023-02-05T01:29:59;19.27;;;12.90;;
18360;SDS011;9308;48.550;9.108;2023-02-05T01:32:25;15.93;;;12.27;;
18360;SDS011;9308;48.550;9.108;2023-02-05T01:34:52;22.00;;;12.33;;
18360;SDS011;9308;48.550;9.108;2023-02-05T01:37:17;17.00;;;12.53;;
18360;SDS011;9308;48.550;9.108;2023-02-05T01:39:43;17.23;;;12.33;;
18360;SDS011;9308;48.550;9.108;2023-02-05T01:42:19;13.10;;;11.70;;
18360;SDS011;9308;48.550;9.108;2023-02-05T01:48:00;13.63;;;11.80;;
18360;SDS011;9308;48.550;9.108;2023-02-05T01:50:41;15.90;;;11.57;;
18360;SDS011;9308;48.550;9.108;2023-02-05T01:53:14;13.63;;;10.83;;
18360;SDS011;9308;48.550;9.108;2023-02-05T01:55:48;14.53;;;11.67;;
18360;SDS011;9308;48.550;9.108;2023-02-05T01:58:18;14.80;;;12.13;;
18360;SDS011;9308;48.550;9.108;2023-02-05T02:00:43;17.13;;;12.77;;
18360;SDS011;9308;48.550;9.108;2023-02-05T02:03:09;17.07;;;12.90;;
18360;SDS011;9308;48.550;9.108;2023-02-05T02:05:37;19.63;;;13.90;;
18360;SDS011;9308;48.550;9.108;2023-02-05T02:08:03;20.73;;;12.63;;
18360;SDS011;9308;48.550;9.108;2023-02-05T02:10:28;18.07;;;14.07;;
18360;SDS011;9308;48.550;9.108;2023-02-05T02:12:55;18.27;;;13.90;;
18360;SDS011;9308;48.550;9.108;2023-02-05T02:15:21;15.33;;;13.50;;
18360;SDS011;9308;48.550;9.108;2023-02-05T02:17:51;15.00;;;13.50;;
18360;SDS011;9308;48.550;9.108;2023-02-05T02:20:25;14.47;;;13.07;;
18360;SDS011;9308;48.550;9.108;2023-02-05T02:23:08;18.50;;;14.53;;
18360;SDS011;9308;48.550;9.108;2023-02-05T02:28:34;21.23;;;13.93;;
18360;SDS011;9308;48.550;9.108;2023-02-05T02:34:01;20.00;;;15.50;;
18360;SDS011;9308;48.550;9.108;2023-02-05T02:36:40;19.57;;;15.30;;
18360;SDS011;9308;48.550;9.108;2023-02-05T02:39:20;21.40;;;15.17;;
18360;SDS011;9308;48.550;9.108;2023-02-05T02:41:53;17.37;;;15.53;;
18360;SDS011;9308;48.550;9.108;2023-02-05T02:44:39;22.60;;;16.10;;
18360;SDS011;9308;48.550;9.108;2023-02-05T02:47:16;19.87;;;16.17;;
18360;SDS011;9308;48.550;9.108;2023-02-05T02:49:51;18.97;;;15.77;;
18360;SDS011;9308;48.550;9.108;2023-02-05T02:52:23;15.40;;;13.80;;
18360;SDS011;9308;48.550;9.108;2023-02-05T02:54:51;17.97;;;14.40;;
18360;SDS011;9308;48.550;9.108;2023-02-05T02:57:20;17.03;;;14.90;;
18360;SDS011;9308;48.550;9.108;2023-02-05T02:59:48;18.30;;;15.63;;
18360;SDS011;9308;48.550;9.108;2023-02-05T03:02:15;19.67;;;15.00;;
18360;SDS011;9308;48.550;9.108;2023-02-05T03:04:43;20.50;;;16.83;;
18360;SDS011;9308;48.550;9.108;2023-02-05T03:12:14;19.50;;;14.53;;
18360;SDS011;9308;48.550;9.108;2023-02-05T03:14:39;16.20;;;14.53;;
18360;SDS011;9308;48.550;9.108;2023-02-05T03:17:05;18.00;;;16.10;;
18360;SDS011;9308;48.550;9.108;2023-02-05T03:19:30;18.10;;;14.70;;
18360;SDS011;9308;48.550;9.108;2023-02-05T03:22:02;17.17;;;15.37;;
18360;SDS011;9308;48.550;9.108;2023-02-05T03:24:30;19.83;;;15.57;;
18360;SDS011;9308;48.550;9.108;2023-02-05T03:26:56;18.33;;;14.60;;
18360;SDS011;9308;48.550;9.108;2023-02-05T03:29:25;19.07;;;15.93;;
18360;SDS011;9308;48.550;9.108;2023-02-05T03:34:40;22.77;;;14.83;;
18360;SDS011;9308;48.550;9.108;2023-02-05T03:37:32;22.50;;;15.47;;
18360;SDS011;9308;48.550;9.108;2023-02-05T03:43:11;18.47;;;14.33;;
18360;SDS011;9308;48.550;9.108;2023-02-05T03:49:28;16.20;;;13.97;;
18360;SDS011;9308;48.550;9.108;2023-02-05T03:51:50;18.90;;;15.40;;
18360;SDS011;9308;48.550;9.108;2023-02-05T03:54:29;17.23;;;14.60;;
18360;SDS011;9308;48.550;9.108;2023-02-05T03:57:14;16.43;;;13.60;;
18360;SDS011;9308;48.550;9.108;2023-02-05T03:59:48;17.80;;;13.60;;
18360;SDS011;9308;48.550;9.108;2023-02-05T04:02:15;14.87;;;13.33;;
18360;SDS011;9308;48.550;9.108;2023-02-05T04:04:42;18.47;;;14.13;;
18360;SDS011;9308;48.550;9.108;2023-02-05T04:07:07;16.97;;;13.37;;
18360;SDS011;9308;48.550;9.108;2023-02-05T04:09:33;19.53;;;13.20;;
18360;SDS011;9308;48.550;9.108;2023-02-05T04:11:58;19.37;;;13.27;;
18360;SDS011;9308;48.550;9.108;2023-02-05T04:14:24;18.27;;;14.83;;
18360;SDS011;9308;48.550;9.108;2023-02-05T04:16:49;15.40;;;13.50;;
18360;SDS011;9308;48.550;9.108;2023-02-05T04:19:14;17.43;;;14.40;;
18360;SDS011;9308;48.550;9.108;2023-02-05T04:21:40;16.50;;;14.77;;
18360;SDS011;9308;48.550;9.108;2023-02-05T04:24:05;20.27;;;15.23;;
18360;SDS011;9308;48.550;9.108;2023-02-05T04:26:31;18.37;;;14.00;;
18360;SDS011;9308;48.550;9.108;2023-02-05T04:28:57;17.57;;;13.43;;
18360;SDS011;9308;48.550;9.108;2023-02-05T04:31:22;15.07;;;13.57;;
18360;SDS011;9308;48.550;9.108;2023-02-05T04:36:16;15.70;;;13.97;;
18360;SDS011;9308;48.550;9.108;2023-02-05T04:38:41;22.50;;;14.30;;
18360;SDS011;9308;48.550;9.108;2023-02-05T04:41:07;14.23;;;12.73;;
18360;SDS011;9308;48.550;9.108;2023-02-05T04:43:33;20.97;;;14.90;;
18360;SDS011;9308;48.550;9.108;2023-02-05T04:46:03;22.20;;;14.47;;
18360;SDS011;9308;48.550;9.108;2023-02-05T04:48:32;18.40;;;14.27;;
18360;SDS011;9308;48.550;9.108;2023-02-05T04:50:58;20.30;;;13.70;;
18360;SDS011;9308;48.550;9.108;2023-02-05T04:53:23;16.00;;;13.80;;
18360;SDS011;9308;48.550;9.108;2023-02-05T04:55:49;19.33;;;14.77;;
18360;SDS011;9308;48.550;9.108;2023-02-05T04:58:14;18.33;;;14.43;;
18360;SDS011;9308;48.550;9.108;2023-02-05T05:00:39;15.10;;;13.10;;
18360;SDS011;9308;48.550;9.108;2023-02-05T05:03:05;16.20;;;14.10;;
18360;SDS011;9308;48.550;9.108;2023-02-05T05:05:30;14.00;;;12.30;;
18360;SDS011;9308;48.550;9.108;2023-02-05T05:07:58;15.83;;;12.60;;
18360;SDS011;9308;48.550;9.108;2023-02-05T05:10:24;13.63;;;12.23;;
18360;SDS011;9308;48.550;9.108;2023-02-05T05:12:49;15.57;;;12.53;;
18360;SDS011;9308;48.550;9.108;2023-02-05T05:15:17;19.93;;;12.50;;
18360;SDS011;9308;48.550;9.108;2023-02-05T05:17:42;14.33;;;12.67;;
18360;SDS011;9308;48.550;9.108;2023-02-05T05:20:08;14.47;;;12.73;;
18360;SDS011;9308;48.550;9.108;2023-02-05T05:22:34;20.43;;;14.37;;
18360;SDS011;9308;48.550;9.108;2023-02-05T05:24:59;21.27;;;15.03;;
18360;SDS011;9308;48.550;9.108;2023-02-05T05:27:25;18.07;;;16.30;;
18360;SDS011;9308;48.550;9.108;2023-02-05T05:29:50;20.80;;;14.27;;
18360;SDS011;9308;48.550;9.108;2023-02-05T05:32:16;14.30;;;12.90;;
18360;SDS011;9308;48.550;9.108;2023-02-05T05:34:41;21.03;;;14.50;;
18360;SDS011;9308;48.550;9.108;2023-02-05T05:37:07;18.60;;;14.47;;
18360;SDS011;9308;48.550;9.108;2023-02-05T05:39:32;15.47;;;13.87;;
18360;SDS011;9308;48.550;9.108;2023-02-05T05:42:16;15.53;;;13.93;;
18360;SDS011;9308;48.550;9.108;2023-02-05T05:45:00;26.73;;;14.70;;
18360;SDS011;9308;48.550;9.108;2023-02-05T05:47:25;17.97;;;15.97;;
18360;SDS011;9308;48.550;9.108;2023-02-05T05:49:51;18.97;;;13.90;;
18360;SDS011;9308;48.550;9.108;2023-02-05T05:52:17;15.60;;;13.80;;
18360;SDS011;9308;48.550;9.108;2023-02-05T05:54:42;18.50;;;13.90;;
18360;SDS011;9308;48.550;9.108;2023-02-05T05:57:08;17.97;;;14.93;;
18360;SDS011;9308;48.550;9.108;2023-02-05T05:59:33;19.43;;;14.40;;
18360;SDS011;9308;48.550;9.108;2023-02-05T06:01:59;16.70;;;14.17;;
18360;SDS011;9308;48.550;9.108;2023-02-05T06:04:26;15.80;;;14.07;;
18360;SDS011;9308;48.550;9.108;2023-02-05T06:06:52;17.77;;;14.23;;
18360;SDS011;9308;48.550;9.108;2023-02-05T06:09:18;21.67;;;16.50;;
18360;SDS011;9308;48.550;9.108;2023-02-05T06:11:46;18.40;;;15.93;;
18360;SDS011;9308;48.550;9.108;2023-02-05T06:14:14;21.73;;;15.87;;
18360;SDS011;9308;48.550;9.108;2023-02-05T06:16:40;20.27;;;18.20;;
18360;SDS011;9308;48.550;9.108;2023-02-05T06:19:05;21.47;;;18.90;;
18360;SDS011;9308;48.550;9.108;2023-02-05T06:21:31;20.07;;;16.83;;
18360;SDS011;9308;48.550;9.108;2023-02-05T06:23:56;17.63;;;15.63;;
18360;SDS011;9308;48.550;9.108;2023-02-05T06:26:22;17.47;;;15.37;;
18360;SDS011;9308;48.550;9.108;2023-02-05T06:28:47;19.17;;;16.73;;
18360;SDS011;9308;48.550;9.108;2023-02-05T06:31:13;18.33;;;16.40;;
18360;SDS011;9308;48.550;9.108;2023-02-05T06:33:38;18.70;;;14.90;;
18360;SDS011;9308;48.550;9.108;2023-02-05T06:36:04;19.73;;;14.83;;
18360;SDS011;9308;48.550;9.108;2023-02-05T06:38:30;18.33;;;15.27;;
18360;SDS011;9308;48.550;9.108;2023-02-05T06:40:55;17.53;;;15.60;;
18360;SDS011;9308;48.550;9.108;2023-02-05T06:43:20;18.07;;;14.80;;
18360;SDS011;9308;48.550;9.108;2023-02-05T06:45:46;17.00;;;14.73;;
18360;SDS011;9308;48.550;9.108;2023-02-05T06:48:13;18.70;;;15.37;;
18360;SDS011;9308;48.550;9.108;2023-02-05T06:50:38;18.20;;;15.10;;
18360;SDS011;9308;48.550;9.108;2023-02-05T06:53:04;20.07;;;14.70;;
18360;SDS011;9308;48.550;9.108;2023-02-05T06:55:29;19.43;;;16.27;;
18360;SDS011;9308;48.550;9.108;2023-02-05T06:57:54;18.30;;;16.07;;
18360;SDS011;9308;48.550;9.108;2023-02-05T07:00:20;17.33;;;15.33;;
18360;SDS011;9308;48.550;9.108;2023-02-05T07:02:45;21.60;;;16.73;;
18360;SDS011;9308;48.550;9.108;2023-02-05T07:05:11;18.17;;;16.50;;
18360;SDS011;9308;48.550;9.108;2023-02-05T07:07:36;15.80;;;14.00;;
18360;SDS011;9308;48.550;9.108;2023-02-05T07:10:02;15.73;;;13.93;;
18360;SDS011;9308;48.550;9.108;2023-02-05T07:12:28;17.23;;;13.10;;
18360;SDS011;9308;48.550;9.108;2023-02-05T07:14:54;15.13;;;13.47;;
18360;SDS011;9308;48.550;9.108;2023-02-05T07:17:19;16.07;;;13.00;;
18360;SDS011;9308;48.550;9.108;2023-02-05T07:19:45;19.13;;;14.73;;
18360;SDS011;9308;48.550;9.108;2023-02-05T07:22:13;15.50;;;13.70;;
18360;SDS011;9308;48.550;9.108;2023-02-05T07:24:39;15.67;;;13.10;;
18360;SDS011;9308;48.550;9.108;2023-02-05T07:27:06;16.13;;;13.10;;
18360;SDS011;9308;48.550;9.108;2023-02-05T07:29:31;15.80;;;13.40;;
18360;SDS011;9308;48.550;9.108;2023-02-05T07:31:57;14.70;;;12.70;;
18360;SDS011;9308;48.550;9.108;2023-02-05T07:34:22;15.67;;;13.50;;
18360;SDS011;9308;48.550;9.108;2023-02-05T07:36:48;17.70;;;13.50;;
18360;SDS011;9308;48.550;9.108;2023-02-05T07:39:15;15.80;;;13.30;;
18360;SDS011;9308;48.550;9.108;2023-02-05T07:41:40;17.10;;;14.30;;
18360;SDS011;9308;48.550;9.108;2023-02-05T07:44:05;18.33;;;14.87;;
18360;SDS011;9308;48.550;9.108;2023-02-05T07:46:31;16.37;;;12.93;;
18360;SDS011;9308;48.550;9.108;2023-02-05T07:48:56;18.60;;;13.30;;
18360;SDS011;9308;48.550;9.108;2023-02-05T07:51:22;27.00;;;14.73;;
18360;SDS011;9308;48.550;9.108;2023-02-05T07:53:49;15.60;;;12.60;;
18360;SDS011;9308;48.550;9.108;2023-02-05T07:56:16;15.00;;;13.30;;
18360;SDS011;9308;48.550;9.108;2023-02-05T07:58:42;17.30;;;12.80;;
18360;SDS011;9308;48.550;9.108;2023-02-05T08:01:07;18.23;;;12.90;;
18360;SDS011;9308;48.550;9.108;2023-02-05T08:03:33;15.50;;;11.93;;
18360;SDS011;9308;48.550;9.108;2023-02-05T08:06:02;17.23;;;12.43;;
18360;SDS011;9308;48.550;9.108;2023-02-05T08:08:31;19.73;;;14.90;;
18360;SDS011;9308;48.550;9.108;2023-02-05T08:10:58;15.27;;;13.47;;
18360;SDS011;9308;48.550;9.108;2023-02-05T08:13:25;14.90;;;13.30;;
18360;SDS011;9308;48.550;9.108;2023-02-05T08:15:50;15.13;;;13.53;;
18360;SDS011;9308;48.550;9.108;2023-02-05T08:18:16;15.93;;;14.23;;
18360;SDS011;9308;48.550;9.108;2023-02-05T08:20:41;18.70;;;14.73;;
18360;SDS011;9308;48.550;9.108;2023-02-05T08:23:07;17.53;;;15.67;;
18360;SDS011;9308;48.550;9.108;2023-02-05T08:25:32;17.57;;;15.63;;
18360;SDS011;9308;48.550;9.108;2023-02-05T08:27:58;17.10;;;14.70;;
18360;SDS011;9308;48.550;9.108;2023-02-05T08:30:23;17.90;;;15.33;;
18360;SDS011;9308;48.550;9.108;2023-02-05T08:32:49;20.53;;;17.23;;
18360;SDS011;9308;48.550;9.108;2023-02-05T08:35:16;17.90;;;16.07;;
18360;SDS011;9308;48.550;9.108;2023-02-05T08:37:43;19.00;;;17.00;;
18360;SDS011;9308;48.550;9.108;2023-02-05T08:40:09;20.37;;;15.57;;
18360;SDS011;9308;48.550;9.108;2023-02-05T08:42:36;17.90;;;13.90;;
18360;SDS011;9308;48.550;9.108;2023-02-05T08:45:04;17.37;;;14.20;;
18360;SDS011;9308;48.550;9.108;2023-02-05T08:47:35;16.40;;;14.57;;
18360;SDS011;9308;48.550;9.108;2023-02-05T08:50:03;18.43;;;13.93;;
18360;SDS011;9308;48.550;9.108;2023-02-05T08:52:32;15.23;;;12.77;;
18360;SDS011;9308;48.550;9.108;2023-02-05T08:54:59;15.20;;;12.10;;
18360;SDS011;9308;48.550;9.108;2023-02-05T08:57:29;15.17;;;11.40;;
18360;SDS011;9308;48.550;9.108;2023-02-05T08:59:56;12.97;;;11.63;;
18360;SDS011;9308;48.550;9.108;2023-02-05T09:02:23;13.43;;;11.17;;
18360;SDS011;9308;48.550;9.108;2023-02-05T09:04:51;13.23;;;11.80;;
18360;SDS011;9308;48.550;9.108;2023-02-05T09:07:19;14.60;;;11.30;;
18360;SDS011;9308;48.550;9.108;2023-02-05T09:09:46;14.30;;;11.60;;
18360;SDS011;9308;48.550;9.108;2023-02-05T09:12:13;13.17;;;10.60;;
18360;SDS011;9308;48.550;9.108;2023-02-05T09:14:41;12.80;;;10.90;;
18360;SDS011;9308;48.550;9.108;2023-02-05T09:17:09;14.00;;;12.50;;
18360;SDS011;9308;48.550;9.108;2023-02-05T09:19:37;18.80;;;11.83;;
18360;SDS011;9308;48.550;9.108;2023-02-05T09:22:05;16.43;;;13.20;;
18360;SDS011;9308;48.550;9.108;2023-02-05T09:24:36;14.33;;;12.70;;
18360;SDS011;9308;48.550;9.108;2023-02-05T09:27:05;15.27;;;12.70;;
18360;SDS011;9308;48.550;9.108;2023-02-05T09:29:31;13.53;;;12.20;;
18360;SDS011;9308;48.550;9.108;2023-02-05T09:31:59;12.53;;;11.23;;
18360;SDS011;9308;48.550;9.108;2023-02-05T09:34:26;19.00;;;12.27;;
18360;SDS011;9308;48.550;9.108;2023-02-05T09:36:54;14.03;;;12.40;;
18360;SDS011;9308;48.550;9.108;2023-02-05T09:39:20;17.47;;;11.73;;
18360;SDS011;9308;48.550;9.108;2023-02-05T09:41:52;15.17;;;10.50;;
18360;SDS011;9308;48.550;9.108;2023-02-05T09:44:37;11.13;;;9.83;;
18360;SDS011;9308;48.550;9.108;2023-02-05T09:50:17;15.27;;;11.10;;
18360;SDS011;9308;48.550;9.108;2023-02-05T09:53:01;15.97;;;11.47;;
18360;SDS011;9308;48.550;9.108;2023-02-05T09:55:33;11.73;;;10.23;;
18360;SDS011;9308;48.550;9.108;2023-02-05T09:58:05;12.27;;;10.10;;
18360;SDS011;9308;48.550;9.108;2023-02-05T10:00:44;15.00;;;12.07;;
18360;SDS011;9308;48.550;9.108;2023-02-05T10:11:26;14.00;;;12.60;;
18360;SDS011;9308;48.550;9.108;2023-02-05T10:14:04;14.97;;;13.03;;
18360;SDS011;9308;48.550;9.108;2023-02-05T10:16:45;18.87;;;13.60;;
18360;SDS011;9308;48.550;9.108;2023-02-05T10:27:34;18.80;;;14.60;;
18360;SDS011;9308;48.550;9.108;2023-02-05T10:30:15;15.03;;;12.30;;
18360;SDS011;9308;48.550;9.108;2023-02-05T10:32:58;17.80;;;12.83;;
18360;SDS011;9308;48.550;9.108;2023-02-05T10:35:38;16.53;;;13.03;;
18360;SDS011;9308;48.550;9.108;2023-02-05T10:38:22;17.67;;;12.70;;
18360;SDS011;9308;48.550;9.108;2023-02-05T10:40:56;15.27;;;13.37;;
18360;SDS011;9308;48.550;9.108;2023-02-05T10:43:35;16.80;;;12.73;;
18360;SDS011;9308;48.550;9.108;2023-02-05T10:46:10;14.53;;;12.30;;
18360;SDS011;9308;48.550;9.108;2023-02-05T10:51:15;15.57;;;13.80;;
18360;SDS011;9308;48.550;9.108;2023-02-05T10:53:46;16.87;;;13.70;;
18360;SDS011;9308;48.550;9.108;2023-02-05T10:56:15;18.43;;;14.80;;
18360;SDS011;9308;48.550;9.108;2023-02-05T11:01:23;22.73;;;16.30;;
18360;SDS011;9308;48.550;9.108;2023-02-05T11:04:05;20.20;;;15.63;;
18360;SDS011;9308;48.550;9.108;2023-02-05T11:06:38;17.10;;;14.50;;
18360;SDS011;9308;48.550;9.108;2023-02-05T11:11:55;37.70;;;23.63;;
18360;SDS011;9308;48.550;9.108;2023-02-05T11:14:28;23.83;;;17.47;;
18360;SDS011;9308;48.550;9.108;2023-02-05T11:20:23;17.83;;;14.70;;
18360;SDS011;9308;48.550;9.108;2023-02-05T11:22:43;17.57;;;13.80;;
18360;SDS011;9308;48.550;9.108;2023-02-05T11:25:16;14.30;;;12.90;;
18360;SDS011;9308;48.550;9.108;2023-02-05T11:30:32;16.87;;;12.80;;
18360;SDS011;9308;48.550;9.108;2023-02-05T11:36:05;16.73;;;11.57;;
18360;SDS011;9308;48.550;9.108;2023-02-05T11:41:09;17.53;;;12.20;;
18360;SDS011;9308;48.550;9.108;2023-02-05T11:43:40;13.00;;;10.40;;
18360;SDS011;9308;48.550;9.108;2023-02-05T11:46:15;14.13;;;10.20;;
18360;SDS011;9308;48.550;9.108;2023-02-05T11:54:03;13.33;;;10.40;;
18360;SDS011;9308;48.550;9.108;2023-02-05T11:56:57;14.90;;;9.60;;
18360;SDS011;9308;48.550;9.108;2023-02-05T11:59:26;20.27;;;10.70;;
18360;SDS011;9308;48.550;9.108;2023-02-05T12:01:53;15.03;;;10.50;;
18360;SDS011;9308;48.550;9.108;2023-02-05T12:04:22;11.13;;;8.87;;
18360;SDS011;9308;48.550;9.108;2023-02-05T12:06:59;13.70;;;9.40;;
18360;SDS011;9308;48.550;9.108;2023-02-05T12:09:36;12.43;;;9.37;;
18360;SDS011;9308;48.550;9.108;2023-02-05T12:12:09;13.73;;;9.87;;
18360;SDS011;9308;48.550;9.108;2023-02-05T12:14:54;16.07;;;9.43;;
18360;SDS011;9308;48.550;9.108;2023-02-05T12:17:39;14.50;;;11.63;;
18360;SDS011;9308;48.550;9.108;2023-02-05T12:28:41;11.97;;;10.07;;
18360;SDS011;9308;48.550;9.108;2023-02-05T12:31:21;12.83;;;10.03;;
18360;SDS011;9308;48.550;9.108;2023-02-05T12:34:12;12.20;;;9.57;;
18360;SDS011;9308;48.550;9.108;2023-02-05T12:39:52;19.00;;;10.47;;
18360;SDS011;9308;48.550;9.108;2023-02-05T12:48:09;24.50;;;21.87;;
18360;SDS011;9308;48.550;9.108;2023-02-05T12:54:20;13.53;;;12.17;;
18360;SDS011;9308;48.550;9.108;2023-02-05T12:56:54;17.00;;;14.33;;
18360;SDS011;9308;48.550;9.108;2023-02-05T13:02:35;15.70;;;12.20;;
18360;SDS011;9308;48.550;9.108;2023-02-05T13:05:22;13.80;;;11.20;;
18360;SDS011;9308;48.550;9.108;2023-02-05T13:08:01;9.90;;;8.27;;
18360;SDS011;9308;48.550;9.108;2023-02-05T13:10:51;10.40;;;9.27;;
18360;SDS011;9308;48.550;9.108;2023-02-05T13:13:24;10.90;;;9.57;;
18360;SDS011;9308;48.550;9.108;2023-02-05T13:16:03;9.93;;;8.53;;
18360;SDS011;9308;48.550;9.108;2023-02-05T13:18:36;10.03;;;8.80;;
18360;SDS011;9308;48.550;9.108;2023-02-05T13:21:07;11.87;;;8.43;;
18360;SDS011;9308;48.550;9.108;2023-02-05T13:24:02;12.67;;;9.10;;
18360;SDS011;9308;48.550;9.108;2023-02-05T13:27:02;9.43;;;7.50;;
18360;SDS011;9308;48.550;9.108;2023-02-05T13:29:53;9.97;;;8.83;;
18360;SDS011;9308;48.550;9.108;2023-02-05T13:32:21;10.77;;;8.83;;
18360;SDS011;9308;48.550;9.108;2023-02-05T13:34:54;10.93;;;8.53;;
18360;SDS011;9308;48.550;9.108;2023-02-05T13:37:40;12.80;;;8.83;;
18360;SDS011;9308;48.550;9.108;2023-02-05T13:46:18;9.30;;;8.50;;
18360;SDS011;9308;48.550;9.108;2023-02-05T13:49:01;11.30;;;8.83;;
18360;SDS011;9308;48.550;9.108;2023-02-05T13:51:51;10.60;;;9.37;;
18360;SDS011;9308;48.550;9.108;2023-02-05T14:00:36;9.10;;;8.17;;
18360;SDS011;9308;48.550;9.108;2023-02-05T14:03:08;8.30;;;7.17;;
18360;SDS011;9308;48.550;9.108;2023-02-05T14:05:52;8.60;;;6.80;;
18360;SDS011;9308;48.550;9.108;2023-02-05T14:08:23;10.70;;;8.10;;
18360;SDS011;9308;48.550;9.108;2023-02-05T14:10:58;7.37;;;6.77;;
18360;SDS011;9308;48.550;9.108;2023-02-05T14:13:29;8.97;;;7.53;;
18360;SDS011;9308;48.550;9.108;2023-02-05T14:18:48;7.70;;;7.00;;
18360;SDS011;9308;48.550;9.108;2023-02-05T14:23:59;9.67;;;8.77;;
18360;SDS011;9308;48.550;9.108;2023-02-05T14:29:55;7.73;;;7.00;;
18360;SDS011;9308;48.550;9.108;2023-02-05T14:32:09;6.97;;;6.10;;
18360;SDS011;9308;48.550;9.108;2023-02-05T14:37:01;7.00;;;6.27;;
18360;SDS011;9308;48.550;9.108;2023-02-05T14:39:28;6.20;;;5.60;;
18360;SDS011;9308;48.550;9.108;2023-02-05T14:41:58;5.80;;;5.20;;
18360;SDS011;9308;48.550;9.108;2023-02-05T14:44:30;5.10;;;4.60;;
18360;SDS011;9308;48.550;9.108;2023-02-05T14:47:22;5.20;;;4.70;;
18360;SDS011;9308;48.550;9.108;2023-02-05T14:49:50;6.10;;;5.53;;
18360;SDS011;9308;48.550;9.108;2023-02-05T14:52:29;6.70;;;6.10;;
18360;SDS011;9308;48.550;9.108;2023-02-05T14:57:39;5.97;;;5.57;;
18360;SDS011;9308;48.550;9.108;2023-02-05T15:07:59;6.70;;;6.00;;
18360;SDS011;9308;48.550;9.108;2023-02-05T15:10:35;6.90;;;6.20;;
18360;SDS011;9308;48.550;9.108;2023-02-05T15:13:12;7.07;;;6.37;;
18360;SDS011;9308;48.550;9.108;2023-02-05T15:16:06;6.97;;;6.37;;
18360;SDS011;9308;48.550;9.108;2023-02-05T15:18:47;17.07;;;15.83;;
18360;SDS011;9308;48.550;9.108;2023-02-05T15:21:17;11.10;;;10.00;;
18360;SDS011;9308;48.550;9.108;2023-02-05T15:23:49;9.50;;;8.60;;
18360;SDS011;9308;48.550;9.108;2023-02-05T15:26:23;17.93;;;16.03;;
18360;SDS011;9308;48.550;9.108;2023-02-05T15:34:20;9.87;;;8.97;;
18360;SDS011;9308;48.550;9.108;2023-02-05T15:42:09;8.87;;;8.17;;
18360;SDS011;9308;48.550;9.108;2023-02-05T15:44:42;6.57;;;6.07;;
18360;SDS011;9308;48.550;9.108;2023-02-05T15:47:09;6.47;;;5.90;;
18360;SDS011;9308;48.550;9.108;2023-02-05T15:49:41;5.73;;;5.20;;
18360;SDS011;9308;48.550;9.108;2023-02-05T15:52:43;5.70;;;5.30;;
18360;SDS011;9308;48.550;9.108;2023-02-05T15:55:07;7.53;;;6.97;;
18360;SDS011;9308;48.550;9.108;2023-02-05T15:57:37;6.30;;;5.80;;
18360;SDS011;9308;48.550;9.108;2023-02-05T16:00:04;5.13;;;4.80;;
18360;SDS011;9308;48.550;9.108;2023-02-05T16:02:32;5.10;;;4.70;;
18360;SDS011;9308;48.550;9.108;2023-02-05T16:05:15;5.87;;;5.37;;
18360;SDS011;9308;48.550;9.108;2023-02-05T16:07:43;6.93;;;6.33;;
18360;SDS011;9308;48.550;9.108;2023-02-05T16:10:16;5.37;;;4.97;;
18360;SDS011;9308;48.550;9.108;2023-02-05T16:12:56;6.70;;;6.10;;
18360;SDS011;9308;48.550;9.108;2023-02-05T16:15:22;7.83;;;7.23;;
18360;SDS011;9308;48.550;9.108;2023-02-05T16:17:50;9.53;;;8.77;;
18360;SDS011;9308;48.550;9.108;2023-02-05T16:20:22;8.93;;;8.23;;
18360;SDS011;9308;48.550;9.108;2023-02-05T16:22:54;10.63;;;9.63;;
18360;SDS011;9308;48.550;9.108;2023-02-05T16:25:27;7.93;;;7.20;;
18360;SDS011;9308;48.550;9.108;2023-02-05T16:27:54;6.33;;;5.83;;
18360;SDS011;9308;48.550;9.108;2023-02-05T16:30:38;5.90;;;5.50;;
18360;SDS011;9308;48.550;9.108;2023-02-05T16:33:07;8.07;;;7.37;;
18360;SDS011;9308;48.550;9.108;2023-02-05T16:35:45;9.43;;;8.60;;
18360;SDS011;9308;48.550;9.108;2023-02-05T16:38:13;9.70;;;8.80;;
18360;SDS011;9308;48.550;9.108;2023-02-05T16:40:42;8.77;;;7.97;;
18360;SDS011;9308;48.550;9.108;2023-02-05T16:54:20;14.27;;;13.07;;
18360;SDS011;9308;48.550;9.108;2023-02-05T16:56:54;14.63;;;13.50;;
18360;SDS011;9308;48.550;9.108;2023-02-05T16:59:32;6.63;;;6.13;;
18360;SDS011;9308;48.550;9.108;2023-02-05T17:02:02;5.77;;;5.27;;
18360;SDS011;9308;48.550;9.108;2023-02-05T17:04:30;5.57;;;5.10;;
18360;SDS011;9308;48.550;9.108;2023-02-05T17:06:59;7.70;;;7.10;;
18360;SDS011;9308;48.550;9.108;2023-02-05T17:09:36;8.33;;;7.63;;
18360;SDS011;9308;48.550;9.108;2023-02-05T17:17:22;10.63;;;9.70;;
18360;SDS011;9308;48.550;9.108;2023-02-05T17:22:33;16.37;;;13.27;;
18360;SDS011;9308;48.550;9.108;2023-02-05T17:24:59;18.10;;;16.40;;
18360;SDS011;9308;48.550;9.108;2023-02-05T17:27:27;14.77;;;13.27;;
18360;SDS011;9308;48.550;9.108;2023-02-05T17:29:55;13.23;;;12.00;;
18360;SDS011;9308;48.550;9.108;2023-02-05T17:32:21;13.13;;;11.83;;
18360;SDS011;9308;48.550;9.108;2023-02-05T17:34:47;12.80;;;11.70;;